sensor_id;sensor_type;location;lat;lon;timestamp;P1;durP1;ratioP1;P2;durP2;ratioP2
35128;SDS011;21301;43.626;10.580;2023-03-20T07:23:23;16.45;;;11.10;;
35128;SDS011;21301;43.626;10.580;2023-03-20T07:25:50;16.58;;;11.07;;
35128;SDS011;21301;43.626;10.580;2023-03-20T07:28:17;19.38;;;11.93;;
35128;SDS011;21301;43.626;10.580;2023-03-20T07:30:49;19.65;;;11.50;;
35128;SDS011;21301;43.626;10.580;2023-03-20T07:33:16;16.42;;;10.68;;
35128;SDS011;21301;43.626;10.580;2023-03-20T07:35:45;16.60;;;10.15;;
35128;SDS011;21301;43.626;10.580;2023-03-20T07:38:11;18.50;;;11.13;;
35128;SDS011;21301;43.626;10.580;2023-03-20T07:40:48;16.20;;;10.40;;
35128;SDS011;21301;43.626;10.580;2023-03-20T07:43:15;17.85;;;10.93;;
35128;SDS011;21301;43.626;10.580;2023-03-20T07:46:04;16.75;;;10.18;;
35128;SDS011;21301;43.626;10.580;2023-03-20T07:48:33;17.25;;;10.30;;
35128;SDS011;21301;43.626;10.580;2023-03-20T07:51:00;21.35;;;10.55;;
35128;SDS011;21301;43.626;10.580;2023-03-20T07:53:26;22.08;;;11.48;;
35128;SDS011;21301;43.626;10.580;2023-03-20T07:55:52;25.23;;;10.60;;
35128;SDS011;21301;43.626;10.580;2023-03-20T07:58:18;17.63;;;10.65;;
35128;SDS011;21301;43.626;10.580;2023-03-20T08:00:44;12.88;;;8.95;;
35128;SDS011;21301;43.626;10.580;2023-03-20T08:03:10;12.27;;;9.20;;
35128;SDS011;21301;43.626;10.580;2023-03-20T08:05:36;15.77;;;9.63;;
35128;SDS011;21301;43.626;10.580;2023-03-20T08:08:02;15.70;;;9.98;;
35128;SDS011;21301;43.626;10.580;2023-03-20T08:10:28;15.80;;;9.68;;
35128;SDS011;21301;43.626;10.580;2023-03-20T08:12:53;13.73;;;10.25;;
35128;SDS011;21301;43.626;10.580;2023-03-20T08:15:20;15.20;;;9.77;;
35128;SDS011;21301;43.626;10.580;2023-03-20T08:17:46;13.90;;;10.38;;
35128;SDS011;21301;43.626;10.580;2023-03-20T08:20:12;16.73;;;10.80;;
35128;SDS011;21301;43.626;10.580;2023-03-20T08:22:40;16.73;;;10.25;;
35128;SDS011;21301;43.626;10.580;2023-03-20T08:25:07;13.13;;;9.27;;
35128;SDS011;21301;43.626;10.580;2023-03-20T08:27:33;16.65;;;8.50;;
35128;SDS011;21301;43.626;10.580;2023-03-20T08:30:00;16.15;;;9.30;;
35128;SDS011;21301;43.626;10.580;2023-03-20T08:32:25;12.65;;;7.95;;
35128;SDS011;21301;43.626;10.580;2023-03-20T08:34:52;17.65;;;8.95;;
35128;SDS011;21301;43.626;10.580;2023-03-20T08:37:20;12.77;;;8.15;;
35128;SDS011;21301;43.626;10.580;2023-03-20T08:39:47;11.43;;;7.40;;
35128;SDS011;21301;43.626;10.580;2023-03-20T08:42:12;9.57;;;6.60;;
35128;SDS011;21301;43.626;10.580;2023-03-20T08:44:38;11.40;;;7.60;;
35128;SDS011;21301;43.626;10.580;2023-03-20T08:47:04;12.60;;;8.18;;
35128;SDS011;21301;43.626;10.580;2023-03-20T08:49:32;14.95;;;8.63;;
35128;SDS011;21301;43.626;10.580;2023-03-20T08:51:58;13.27;;;7.13;;
35128;SDS011;21301;43.626;10.580;2023-03-20T08:54:24;11.98;;;7.43;;
35128;SDS011;21301;43.626;10.580;2023-03-20T08:56:51;11.75;;;6.88;;
35128;SDS011;21301;43.626;10.580;2023-03-20T08:59:17;13.65;;;7.28;;
35128;SDS011;21301;43.626;10.580;2023-03-20T09:01:44;12.02;;;6.28;;
35128;SDS011;21301;43.626;10.580;2023-03-20T09:04:10;8.32;;;5.35;;
35128;SDS011;21301;43.626;10.580;2023-03-20T09:06:37;7.70;;;5.00;;
35128;SDS011;21301;43.626;10.580;2023-03-20T09:09:04;8.60;;;5.45;;
35128;SDS011;21301;43.626;10.580;2023-03-20T09:11:31;11.43;;;5.60;;
35128;SDS011;21301;43.626;10.580;2023-03-20T09:13:57;11.73;;;5.38;;
35128;SDS011;21301;43.626;10.580;2023-03-20T09:16:24;8.90;;;5.18;;
35128;SDS011;21301;43.626;10.580;2023-03-20T09:18:50;10.32;;;6.05;;
35128;SDS011;21301;43.626;10.580;2023-03-20T09:21:16;8.57;;;6.00;;
35128;SDS011;21301;43.626;10.580;2023-03-20T09:23:42;7.15;;;4.50;;
35128;SDS011;21301;43.626;10.580;2023-03-20T09:26:08;6.53;;;4.20;;
35128;SDS011;21301;43.626;10.580;2023-03-20T09:28:34;7.60;;;4.53;;
35128;SDS011;21301;43.626;10.580;2023-03-20T09:30:59;8.80;;;4.15;;
35128;SDS011;21301;43.626;10.580;2023-03-20T09:33:26;9.02;;;3.88;;
35128;SDS011;21301;43.626;10.580;2023-03-20T09:35:52;5.13;;;3.08;;
35128;SDS011;21301;43.626;10.580;2023-03-20T09:38:18;6.25;;;3.30;;
35128;SDS011;21301;43.626;10.580;2023-03-20T09:40:55;9.18;;;3.80;;
35128;SDS011;21301;43.626;10.580;2023-03-20T09:43:36;9.82;;;3.75;;
35128;SDS011;21301;43.626;10.580;2023-03-20T09:46:28;5.72;;;2.85;;
35128;SDS011;21301;43.626;10.580;2023-03-20T09:51:50;5.85;;;3.10;;
35128;SDS011;21301;43.626;10.580;2023-03-20T09:57:02;4.00;;;1.60;;
35128;SDS011;21301;43.626;10.580;2023-03-20T09:59:31;3.47;;;1.45;;
35128;SDS011;21301;43.626;10.580;2023-03-20T10:02:05;2.17;;;0.73;;
35128;SDS011;21301;43.626;10.580;2023-03-20T10:04:38;5.10;;;1.30;;
35128;SDS011;21301;43.626;10.580;2023-03-20T10:07:05;2.92;;;1.27;;
35128;SDS011;21301;43.626;10.580;2023-03-20T10:09:35;2.75;;;1.17;;
35128;SDS011;21301;43.626;10.580;2023-03-20T10:19:50;2.60;;;1.27;;
35128;SDS011;21301;43.626;10.580;2023-03-20T10:27:43;2.03;;;0.73;;
35128;SDS011;21301;43.626;10.580;2023-03-20T10:35:48;3.25;;;0.70;;
35128;SDS011;21301;43.626;10.580;2023-03-20T10:40:51;2.58;;;1.00;;
35128;SDS011;21301;43.626;10.580;2023-03-20T10:43:36;3.65;;;1.00;;
35128;SDS011;21301;43.626;10.580;2023-03-20T10:46:04;2.40;;;0.82;;
35128;SDS011;21301;43.626;10.580;2023-03-20T10:48:51;1.67;;;0.85;;
35128;SDS011;21301;43.626;10.580;2023-03-20T10:51:33;3.40;;;1.27;;
35128;SDS011;21301;43.626;10.580;2023-03-20T10:54:28;3.33;;;1.08;;
35128;SDS011;21301;43.626;10.580;2023-03-20T10:56:58;2.55;;;1.00;;
35128;SDS011;21301;43.626;10.580;2023-03-20T10:59:27;3.42;;;0.80;;
35128;SDS011;21301;43.626;10.580;2023-03-20T11:01:58;3.05;;;1.38;;
35128;SDS011;21301;43.626;10.580;2023-03-20T11:04:24;3.55;;;0.93;;
35128;SDS011;21301;43.626;10.580;2023-03-20T11:07:00;1.85;;;0.50;;
35128;SDS011;21301;43.626;10.580;2023-03-20T11:12:32;2.40;;;0.80;;
35128;SDS011;21301;43.626;10.580;2023-03-20T11:15:13;1.42;;;0.60;;
35128;SDS011;21301;43.626;10.580;2023-03-20T11:17:59;2.05;;;0.52;;
35128;SDS011;21301;43.626;10.580;2023-03-20T11:20:32;2.45;;;0.80;;
35128;SDS011;21301;43.626;10.580;2023-03-20T11:23:02;3.40;;;0.80;;
35128;SDS011;21301;43.626;10.580;2023-03-20T11:25:31;2.30;;;0.77;;
35128;SDS011;21301;43.626;10.580;2023-03-20T11:36:29;1.75;;;0.65;;
35128;SDS011;21301;43.626;10.580;2023-03-20T11:39:05;3.15;;;1.10;;
35128;SDS011;21301;43.626;10.580;2023-03-20T11:41:40;1.55;;;0.60;;
35128;SDS011;21301;43.626;10.580;2023-03-20T11:44:24;2.38;;;0.70;;
35128;SDS011;21301;43.626;10.580;2023-03-20T11:47:02;3.20;;;0.70;;
35128;SDS011;21301;43.626;10.580;2023-03-20T11:49:56;4.90;;;0.85;;
35128;SDS011;21301;43.626;10.580;2023-03-20T11:52:42;0.98;;;0.40;;
35128;SDS011;21301;43.626;10.580;2023-03-20T11:58:26;1.15;;;0.30;;
35128;SDS011;21301;43.626;10.580;2023-03-20T12:00:54;1.42;;;0.60;;
35128;SDS011;21301;43.626;10.580;2023-03-20T12:06:41;1.23;;;0.43;;
35128;SDS011;21301;43.626;10.580;2023-03-20T12:09:31;1.67;;;0.55;;
35128;SDS011;21301;43.626;10.580;2023-03-20T12:11:58;1.75;;;0.50;;
35128;SDS011;21301;43.626;10.580;2023-03-20T12:14:33;1.10;;;0.45;;
35128;SDS011;21301;43.626;10.580;2023-03-20T12:17:19;2.47;;;0.50;;
35128;SDS011;21301;43.626;10.580;2023-03-20T12:20:00;1.17;;;0.40;;
35128;SDS011;21301;43.626;10.580;2023-03-20T12:25:28;2.30;;;0.68;;
35128;SDS011;21301;43.626;10.580;2023-03-20T12:28:23;1.25;;;0.40;;
35128;SDS011;21301;43.626;10.580;2023-03-20T12:36:41;4.68;;;0.68;;
35128;SDS011;21301;43.626;10.580;2023-03-20T12:39:11;2.28;;;0.60;;
35128;SDS011;21301;43.626;10.580;2023-03-20T12:47:12;2.58;;;0.65;;
35128;SDS011;21301;43.626;10.580;2023-03-20T12:52:33;0.88;;;0.50;;
35128;SDS011;21301;43.626;10.580;2023-03-20T13:02:46;2.65;;;0.60;;
35128;SDS011;21301;43.626;10.580;2023-03-20T13:13:32;1.98;;;0.80;;
35128;SDS011;21301;43.626;10.580;2023-03-20T13:16:26;2.80;;;0.93;;
35128;SDS011;21301;43.626;10.580;2023-03-20T13:19:24;3.10;;;1.17;;
35128;SDS011;21301;43.626;10.580;2023-03-20T13:22:17;2.95;;;1.05;;
35128;SDS011;21301;43.626;10.580;2023-03-20T13:41:24;2.85;;;0.95;;
35128;SDS011;21301;43.626;10.580;2023-03-20T13:43:51;5.35;;;1.65;;
35128;SDS011;21301;43.626;10.580;2023-03-20T13:46:31;3.05;;;1.17;;
35128;SDS011;21301;43.626;10.580;2023-03-20T13:49:04;4.63;;;0.98;;
35128;SDS011;21301;43.626;10.580;2023-03-20T13:51:41;2.83;;;1.38;;
35128;SDS011;21301;43.626;10.580;2023-03-20T14:00:30;6.00;;;2.13;;
35128;SDS011;21301;43.626;10.580;2023-03-20T14:05:39;3.67;;;1.25;;
35128;SDS011;21301;43.626;10.580;2023-03-20T14:13:36;2.85;;;1.20;;
35128;SDS011;21301;43.626;10.580;2023-03-20T14:16:03;2.72;;;1.00;;
35128;SDS011;21301;43.626;10.580;2023-03-20T14:18:33;3.33;;;1.08;;
35128;SDS011;21301;43.626;10.580;2023-03-20T14:21:08;3.97;;;1.20;;
35128;SDS011;21301;43.626;10.580;2023-03-20T14:23:44;3.85;;;1.10;;
35128;SDS011;21301;43.626;10.580;2023-03-20T14:26:28;2.60;;;0.90;;
35128;SDS011;21301;43.626;10.580;2023-03-20T14:31:35;3.40;;;1.20;;
35128;SDS011;21301;43.626;10.580;2023-03-20T14:34:13;3.58;;;1.52;;
35128;SDS011;21301;43.626;10.580;2023-03-20T14:36:57;2.08;;;0.90;;
35128;SDS011;21301;43.626;10.580;2023-03-20T14:44:46;2.55;;;0.80;;
35128;SDS011;21301;43.626;10.580;2023-03-20T14:50:31;2.75;;;1.00;;
35128;SDS011;21301;43.626;10.580;2023-03-20T15:03:47;4.93;;;1.00;;
35128;SDS011;21301;43.626;10.580;2023-03-20T15:06:33;6.30;;;1.10;;
35128;SDS011;21301;43.626;10.580;2023-03-20T15:09:07;2.20;;;1.08;;
35128;SDS011;21301;43.626;10.580;2023-03-20T15:11:35;3.25;;;1.30;;
35128;SDS011;21301;43.626;10.580;2023-03-20T15:14:03;5.20;;;1.65;;
35128;SDS011;21301;43.626;10.580;2023-03-20T15:16:33;4.53;;;1.70;;
35128;SDS011;21301;43.626;10.580;2023-03-20T15:19:00;5.90;;;2.75;;
35128;SDS011;21301;43.626;10.580;2023-03-20T15:21:33;8.07;;;3.10;;
35128;SDS011;21301;43.626;10.580;2023-03-20T15:24:01;5.93;;;3.05;;
35128;SDS011;21301;43.626;10.580;2023-03-20T15:26:28;9.02;;;2.85;;
35128;SDS011;21301;43.626;10.580;2023-03-20T15:29:06;5.22;;;2.85;;
35128;SDS011;21301;43.626;10.580;2023-03-20T15:31:37;9.63;;;4.03;;
35128;SDS011;21301;43.626;10.580;2023-03-20T15:34:20;9.80;;;3.58;;
35128;SDS011;21301;43.626;10.580;2023-03-20T15:36:48;7.25;;;3.17;;
35128;SDS011;21301;43.626;10.580;2023-03-20T15:39:16;6.63;;;2.92;;
35128;SDS011;21301;43.626;10.580;2023-03-20T15:41:50;6.60;;;3.35;;
35128;SDS011;21301;43.626;10.580;2023-03-20T15:44:19;7.13;;;2.97;;
35128;SDS011;21301;43.626;10.580;2023-03-20T15:46:57;4.40;;;1.98;;
35128;SDS011;21301;43.626;10.580;2023-03-20T15:49:26;4.22;;;1.65;;
35128;SDS011;21301;43.626;10.580;2023-03-20T15:51:55;5.57;;;1.88;;
35128;SDS011;21301;43.626;10.580;2023-03-20T15:54:24;3.03;;;1.10;;
35128;SDS011;21301;43.626;10.580;2023-03-20T15:56:51;2.75;;;1.23;;
35128;SDS011;21301;43.626;10.580;2023-03-20T15:59:19;3.80;;;2.00;;
35128;SDS011;21301;43.626;10.580;2023-03-20T16:01:48;3.60;;;1.80;;
35128;SDS011;21301;43.626;10.580;2023-03-20T16:04:18;3.65;;;1.38;;
35128;SDS011;21301;43.626;10.580;2023-03-20T16:06:49;4.80;;;1.60;;
35128;SDS011;21301;43.626;10.580;2023-03-20T16:09:21;2.55;;;1.00;;
35128;SDS011;21301;43.626;10.580;2023-03-20T16:11:57;2.95;;;0.95;;
35128;SDS011;21301;43.626;10.580;2023-03-20T16:14:27;4.70;;;1.65;;
35128;SDS011;21301;43.626;10.580;2023-03-20T16:16:56;2.65;;;0.70;;
35128;SDS011;21301;43.626;10.580;2023-03-20T16:19:24;1.63;;;0.70;;
35128;SDS011;21301;43.626;10.580;2023-03-20T16:21:52;2.28;;;0.80;;
35128;SDS011;21301;43.626;10.580;2023-03-20T16:24:26;2.00;;;0.63;;
35128;SDS011;21301;43.626;10.580;2023-03-20T16:26:53;5.78;;;1.67;;
35128;SDS011;21301;43.626;10.580;2023-03-20T16:29:21;6.07;;;2.83;;
35128;SDS011;21301;43.626;10.580;2023-03-20T16:31:54;10.15;;;3.47;;
35128;SDS011;21301;43.626;10.580;2023-03-20T16:34:24;5.22;;;2.05;;
35128;SDS011;21301;43.626;10.580;2023-03-20T16:36:57;2.22;;;1.05;;
35128;SDS011;21301;43.626;10.580;2023-03-20T16:39:25;3.08;;;1.40;;
35128;SDS011;21301;43.626;10.580;2023-03-20T16:42:00;3.25;;;1.10;;
35128;SDS011;21301;43.626;10.580;2023-03-20T16:44:32;4.85;;;1.48;;
35128;SDS011;21301;43.626;10.580;2023-03-20T16:52:27;3.63;;;1.40;;
35128;SDS011;21301;43.626;10.580;2023-03-20T16:54:55;5.30;;;1.60;;
35128;SDS011;21301;43.626;10.580;2023-03-20T16:57:22;8.55;;;1.90;;
35128;SDS011;21301;43.626;10.580;2023-03-20T16:59:49;8.48;;;2.30;;
35128;SDS011;21301;43.626;10.580;2023-03-20T17:02:23;5.05;;;2.10;;
35128;SDS011;21301;43.626;10.580;2023-03-20T17:04:54;5.15;;;2.35;;
35128;SDS011;21301;43.626;10.580;2023-03-20T17:07:21;6.97;;;3.60;;
35128;SDS011;21301;43.626;10.580;2023-03-20T17:12:42;7.13;;;4.25;;
35128;SDS011;21301;43.626;10.580;2023-03-20T17:15:14;8.63;;;2.65;;
35128;SDS011;21301;43.626;10.580;2023-03-20T17:17:49;5.20;;;2.92;;
35128;SDS011;21301;43.626;10.580;2023-03-20T17:20:18;6.60;;;2.88;;
35128;SDS011;21301;43.626;10.580;2023-03-20T17:22:46;5.97;;;2.45;;
35128;SDS011;21301;43.626;10.580;2023-03-20T17:25:12;6.45;;;2.40;;
35128;SDS011;21301;43.626;10.580;2023-03-20T17:27:38;4.65;;;2.08;;
35128;SDS011;21301;43.626;10.580;2023-03-20T17:30:06;4.95;;;2.20;;
35128;SDS011;21301;43.626;10.580;2023-03-20T17:32:39;5.72;;;3.20;;
35128;SDS011;21301;43.626;10.580;2023-03-20T17:35:05;9.18;;;5.30;;
35128;SDS011;21301;43.626;10.580;2023-03-20T17:37:31;6.10;;;3.47;;
35128;SDS011;21301;43.626;10.580;2023-03-20T17:39:57;6.90;;;3.13;;
35128;SDS011;21301;43.626;10.580;2023-03-20T17:42:25;5.47;;;2.70;;
35128;SDS011;21301;43.626;10.580;2023-03-20T17:44:55;5.55;;;2.38;;
35128;SDS011;21301;43.626;10.580;2023-03-20T17:47:23;4.82;;;2.42;;
35128;SDS011;21301;43.626;10.580;2023-03-20T17:49:50;5.55;;;3.08;;
35128;SDS011;21301;43.626;10.580;2023-03-20T17:52:22;5.45;;;2.88;;
35128;SDS011;21301;43.626;10.580;2023-03-20T17:54:50;4.38;;;2.25;;
35128;SDS011;21301;43.626;10.580;2023-03-20T17:57:20;5.65;;;2.80;;
35128;SDS011;21301;43.626;10.580;2023-03-20T17:59:46;5.20;;;2.40;;
35128;SDS011;21301;43.626;10.580;2023-03-20T18:02:15;8.18;;;2.63;;
35128;SDS011;21301;43.626;10.580;2023-03-20T18:04:43;7.57;;;3.08;;
35128;SDS011;21301;43.626;10.580;2023-03-20T18:07:09;6.43;;;2.40;;
35128;SDS011;21301;43.626;10.580;2023-03-20T18:09:37;5.10;;;2.45;;
35128;SDS011;21301;43.626;10.580;2023-03-20T18:12:04;5.07;;;2.40;;
35128;SDS011;21301;43.626;10.580;2023-03-20T18:14:31;8.00;;;3.15;;
35128;SDS011;21301;43.626;10.580;2023-03-20T18:16:56;7.88;;;2.67;;
35128;SDS011;21301;43.626;10.580;2023-03-20T18:19:23;8.13;;;3.70;;
35128;SDS011;21301;43.626;10.580;2023-03-20T18:21:52;10.38;;;3.75;;
35128;SDS011;21301;43.626;10.580;2023-03-20T18:24:19;5.43;;;2.92;;
35128;SDS011;21301;43.626;10.580;2023-03-20T18:26:45;6.10;;;3.67;;
35128;SDS011;21301;43.626;10.580;2023-03-20T18:29:11;10.25;;;3.28;;
35128;SDS011;21301;43.626;10.580;2023-03-20T18:31:38;9.70;;;4.00;;
35128;SDS011;21301;43.626;10.580;2023-03-20T18:34:04;19.77;;;9.23;;
35128;SDS011;21301;43.626;10.580;2023-03-20T18:36:30;7.50;;;3.70;;
35128;SDS011;21301;43.626;10.580;2023-03-20T18:38:56;7.43;;;3.33;;
35128;SDS011;21301;43.626;10.580;2023-03-20T18:41:22;7.32;;;3.63;;
35128;SDS011;21301;43.626;10.580;2023-03-20T18:43:49;10.02;;;4.40;;
35128;SDS011;21301;43.626;10.580;2023-03-20T18:46:16;9.68;;;4.82;;
35128;SDS011;21301;43.626;10.580;2023-03-20T18:48:44;9.93;;;3.58;;
35128;SDS011;21301;43.626;10.580;2023-03-20T18:51:10;11.07;;;4.10;;
35128;SDS011;21301;43.626;10.580;2023-03-20T18:53:37;12.48;;;4.28;;
35128;SDS011;21301;43.626;10.580;2023-03-20T18:58:41;10.82;;;4.40;;
35128;SDS011;21301;43.626;10.580;2023-03-20T19:01:08;9.45;;;4.68;;
35128;SDS011;21301;43.626;10.580;2023-03-20T19:03:36;9.55;;;4.47;;
35128;SDS011;21301;43.626;10.580;2023-03-20T19:06:06;8.13;;;4.38;;
35128;SDS011;21301;43.626;10.580;2023-03-20T19:08:39;8.07;;;4.63;;
35128;SDS011;21301;43.626;10.580;2023-03-20T19:11:06;13.05;;;4.15;;
35128;SDS011;21301;43.626;10.580;2023-03-20T19:13:39;11.00;;;4.80;;
35128;SDS011;21301;43.626;10.580;2023-03-20T19:16:18;6.68;;;3.72;;
35128;SDS011;21301;43.626;10.580;2023-03-20T19:18:44;9.95;;;4.60;;
35128;SDS011;21301;43.626;10.580;2023-03-20T19:21:10;11.77;;;5.57;;
35128;SDS011;21301;43.626;10.580;2023-03-20T19:23:35;11.05;;;5.10;;
35128;SDS011;21301;43.626;10.580;2023-03-20T19:26:01;11.77;;;5.28;;
35128;SDS011;21301;43.626;10.580;2023-03-20T19:28:28;10.15;;;6.07;;
35128;SDS011;21301;43.626;10.580;2023-03-20T19:30:57;17.30;;;10.02;;
35128;SDS011;21301;43.626;10.580;2023-03-20T19:33:25;11.32;;;5.57;;
35128;SDS011;21301;43.626;10.580;2023-03-20T19:35:50;13.02;;;5.80;;
35128;SDS011;21301;43.626;10.580;2023-03-20T19:38:17;10.00;;;5.93;;
35128;SDS011;21301;43.626;10.580;2023-03-20T19:40:49;10.43;;;5.57;;
35128;SDS011;21301;43.626;10.580;2023-03-20T19:43:17;14.45;;;6.63;;
35128;SDS011;21301;43.626;10.580;2023-03-20T19:45:45;11.35;;;6.50;;
35128;SDS011;21301;43.626;10.580;2023-03-20T19:50:39;13.63;;;7.80;;
35128;SDS011;21301;43.626;10.580;2023-03-20T19:53:07;19.25;;;10.85;;
35128;SDS011;21301;43.626;10.580;2023-03-20T19:55:34;19.98;;;12.88;;
35128;SDS011;21301;43.626;10.580;2023-03-20T19:58:02;19.48;;;12.07;;
35128;SDS011;21301;43.626;10.580;2023-03-20T20:00:29;14.63;;;8.65;;
35128;SDS011;21301;43.626;10.580;2023-03-20T20:02:57;14.38;;;7.85;;
35128;SDS011;21301;43.626;10.580;2023-03-20T20:05:25;11.48;;;6.93;;
35128;SDS011;21301;43.626;10.580;2023-03-20T20:07:56;10.23;;;6.60;;
35128;SDS011;21301;43.626;10.580;2023-03-20T20:10:23;10.65;;;6.78;;
35128;SDS011;21301;43.626;10.580;2023-03-20T20:12:52;12.63;;;7.10;;
35128;SDS011;21301;43.626;10.580;2023-03-20T20:15:18;10.45;;;6.10;;
35128;SDS011;21301;43.626;10.580;2023-03-20T20:17:44;15.77;;;8.35;;
35128;SDS011;21301;43.626;10.580;2023-03-20T20:20:12;14.93;;;9.35;;
35128;SDS011;21301;43.626;10.580;2023-03-20T20:22:40;48.17;;;34.70;;
35128;SDS011;21301;43.626;10.580;2023-03-20T20:25:06;80.13;;;56.45;;
35128;SDS011;21301;43.626;10.580;2023-03-20T20:27:32;18.92;;;11.60;;
35128;SDS011;21301;43.626;10.580;2023-03-20T20:29:58;16.95;;;10.00;;
35128;SDS011;21301;43.626;10.580;2023-03-20T20:32:25;12.93;;;9.05;;
35128;SDS011;21301;43.626;10.580;2023-03-20T20:34:53;14.35;;;8.77;;
35128;SDS011;21301;43.626;10.580;2023-03-20T20:37:20;13.38;;;8.35;;
35128;SDS011;21301;43.626;10.580;2023-03-20T20:39:47;11.90;;;7.85;;
35128;SDS011;21301;43.626;10.580;2023-03-20T20:42:13;14.75;;;8.93;;
35128;SDS011;21301;43.626;10.580;2023-03-20T20:44:41;16.33;;;9.85;;
35128;SDS011;21301;43.626;10.580;2023-03-20T20:47:07;15.90;;;8.85;;
35128;SDS011;21301;43.626;10.580;2023-03-20T20:49:33;14.55;;;7.68;;
35128;SDS011;21301;43.626;10.580;2023-03-20T20:51:59;12.93;;;8.88;;
35128;SDS011;21301;43.626;10.580;2023-03-20T20:54:25;15.25;;;8.70;;
35128;SDS011;21301;43.626;10.580;2023-03-20T20:56:52;17.73;;;9.18;;
35128;SDS011;21301;43.626;10.580;2023-03-20T20:59:18;16.45;;;8.13;;
35128;SDS011;21301;43.626;10.580;2023-03-20T21:01:44;13.10;;;9.13;;
35128;SDS011;21301;43.626;10.580;2023-03-20T21:04:10;17.67;;;9.77;;
35128;SDS011;21301;43.626;10.580;2023-03-20T21:06:37;11.82;;;8.35;;
35128;SDS011;21301;43.626;10.580;2023-03-20T21:09:04;15.68;;;8.65;;
35128;SDS011;21301;43.626;10.580;2023-03-20T21:11:30;19.30;;;9.68;;
35128;SDS011;21301;43.626;10.580;2023-03-20T21:13:56;14.80;;;8.90;;
35128;SDS011;21301;43.626;10.580;2023-03-20T21:16:22;12.55;;;9.88;;
35128;SDS011;21301;43.626;10.580;2023-03-20T21:18:48;14.75;;;8.68;;
35128;SDS011;21301;43.626;10.580;2023-03-20T21:21:14;12.00;;;7.57;;
35128;SDS011;21301;43.626;10.580;2023-03-20T21:23:40;13.15;;;7.70;;
35128;SDS011;21301;43.626;10.580;2023-03-20T21:26:06;14.93;;;6.95;;
35128;SDS011;21301;43.626;10.580;2023-03-20T21:28:34;10.85;;;7.05;;
35128;SDS011;21301;43.626;10.580;2023-03-20T21:31:01;15.43;;;8.45;;
35128;SDS011;21301;43.626;10.580;2023-03-20T21:33:29;14.82;;;8.50;;
35128;SDS011;21301;43.626;10.580;2023-03-20T21:35:55;14.18;;;9.30;;
35128;SDS011;21301;43.626;10.580;2023-03-20T21:38:21;16.92;;;7.70;;
35128;SDS011;21301;43.626;10.580;2023-03-20T21:40:48;15.35;;;9.40;;
35128;SDS011;21301;43.626;10.580;2023-03-20T21:43:14;19.30;;;10.80;;
35128;SDS011;21301;43.626;10.580;2023-03-20T21:45:41;14.40;;;9.50;;
35128;SDS011;21301;43.626;10.580;2023-03-20T21:48:07;14.50;;;8.30;;
35128;SDS011;21301;43.626;10.580;2023-03-20T21:50:33;16.75;;;10.18;;
35128;SDS011;21301;43.626;10.580;2023-03-20T21:52:59;14.55;;;8.55;;
35128;SDS011;21301;43.626;10.580;2023-03-20T21:55:25;12.18;;;8.63;;
35128;SDS011;21301;43.626;10.580;2023-03-20T21:57:51;16.27;;;10.23;;
35128;SDS011;21301;43.626;10.580;2023-03-20T22:00:18;16.67;;;8.82;;
35128;SDS011;21301;43.626;10.580;2023-03-20T22:02:44;17.00;;;8.77;;
35128;SDS011;21301;43.626;10.580;2023-03-20T22:05:10;17.55;;;9.63;;
35128;SDS011;21301;43.626;10.580;2023-03-20T22:07:36;12.10;;;7.97;;
35128;SDS011;21301;43.626;10.580;2023-03-20T22:10:05;12.00;;;7.40;;
35128;SDS011;21301;43.626;10.580;2023-03-20T22:12:31;14.80;;;7.25;;
35128;SDS011;21301;43.626;10.580;2023-03-20T22:14:57;12.75;;;7.78;;
35128;SDS011;21301;43.626;10.580;2023-03-20T22:17:23;9.98;;;6.55;;
35128;SDS011;21301;43.626;10.580;2023-03-20T22:19:48;12.23;;;6.90;;
35128;SDS011;21301;43.626;10.580;2023-03-20T22:22:14;10.57;;;6.82;;
35128;SDS011;21301;43.626;10.580;2023-03-20T22:24:40;17.33;;;8.18;;
35128;SDS011;21301;43.626;10.580;2023-03-20T22:27:06;14.00;;;7.32;;
35128;SDS011;21301;43.626;10.580;2023-03-20T22:29:32;10.00;;;6.63;;
35128;SDS011;21301;43.626;10.580;2023-03-20T22:31:58;11.15;;;7.32;;
35128;SDS011;21301;43.626;10.580;2023-03-20T22:34:24;12.50;;;7.20;;
35128;SDS011;21301;43.626;10.580;2023-03-20T22:36:51;22.60;;;7.38;;
35128;SDS011;21301;43.626;10.580;2023-03-20T22:39:17;13.40;;;7.88;;
35128;SDS011;21301;43.626;10.580;2023-03-20T22:41:44;13.00;;;8.30;;
35128;SDS011;21301;43.626;10.580;2023-03-20T22:44:10;13.18;;;8.38;;
35128;SDS011;21301;43.626;10.580;2023-03-20T22:46:37;14.55;;;8.25;;
35128;SDS011;21301;43.626;10.580;2023-03-20T22:49:04;15.40;;;8.82;;
35128;SDS011;21301;43.626;10.580;2023-03-20T22:51:30;13.68;;;8.00;;
35128;SDS011;21301;43.626;10.580;2023-03-20T22:53:57;12.15;;;8.77;;
35128;SDS011;21301;43.626;10.580;2023-03-20T22:56:23;19.88;;;10.38;;
35128;SDS011;21301;43.626;10.580;2023-03-20T22:58:49;14.80;;;9.35;;
35128;SDS011;21301;43.626;10.580;2023-03-20T23:01:15;13.88;;;8.98;;
35128;SDS011;21301;43.626;10.580;2023-03-20T23:03:41;17.92;;;10.73;;
35128;SDS011;21301;43.626;10.580;2023-03-20T23:08:33;14.88;;;10.10;;
35128;SDS011;21301;43.626;10.580;2023-03-20T23:11:04;19.40;;;11.95;;
35128;SDS011;21301;43.626;10.580;2023-03-20T23:13:31;15.95;;;9.55;;
35128;SDS011;21301;43.626;10.580;2023-03-20T23:15:57;13.32;;;9.63;;
35128;SDS011;21301;43.626;10.580;2023-03-20T23:18:22;12.23;;;9.55;;
35128;SDS011;21301;43.626;10.580;2023-03-20T23:20:48;13.00;;;9.32;;
35128;SDS011;21301;43.626;10.580;2023-03-20T23:23:14;14.82;;;9.32;;
35128;SDS011;21301;43.626;10.580;2023-03-20T23:25:40;17.65;;;9.10;;
35128;SDS011;21301;43.626;10.580;2023-03-20T23:28:07;14.00;;;9.18;;
35128;SDS011;21301;43.626;10.580;2023-03-20T23:30:33;12.85;;;7.65;;
35128;SDS011;21301;43.626;10.580;2023-03-20T23:32:59;14.98;;;8.48;;
35128;SDS011;21301;43.626;10.580;2023-03-20T23:35:25;12.55;;;7.57;;
35128;SDS011;21301;43.626;10.580;2023-03-20T23:37:51;11.05;;;6.78;;
35128;SDS011;21301;43.626;10.580;2023-03-20T23:40:17;10.88;;;6.30;;
35128;SDS011;21301;43.626;10.580;2023-03-20T23:42:43;10.38;;;6.75;;
35128;SDS011;21301;43.626;10.580;2023-03-20T23:45:09;16.38;;;7.28;;
35128;SDS011;21301;43.626;10.580;2023-03-20T23:47:36;9.30;;;6.25;;
35128;SDS011;21301;43.626;10.580;2023-03-20T23:50:02;10.32;;;6.97;;
35128;SDS011;21301;43.626;10.580;2023-03-20T23:52:28;11.85;;;7.05;;
35128;SDS011;21301;43.626;10.580;2023-03-20T23:54:54;11.60;;;7.30;;
35128;SDS011;21301;43.626;10.580;2023-03-20T23:57:20;11.73;;;6.15;;
35128;SDS011;21301;43.626;10.580;2023-03-20T23:59:45;10.48;;;7.22;;
